createdAt,value
2023-05-22T00:00:32.069Z,5.00
2023-05-22T00:02:04.845Z,5.00
2023-05-22T00:03:37.370Z,4.85
2023-05-22T00:05:11.283Z,4.65
2023-05-22T00:06:43.693Z,4.75
2023-05-22T00:08:15.615Z,5.32
2023-05-22T00:09:47.445Z,4.82
2023-05-22T00:11:19.312Z,5.32
2023-05-22T00:12:51.289Z,5.30
2023-05-22T00:14:23.120Z,5.20
2023-05-22T00:15:55.003Z,4.72
2023-05-22T00:17:26.890Z,5.07
2023-05-22T00:19:00.230Z,4.60
2023-05-22T00:20:32.079Z,4.75
2023-05-22T00:22:03.998Z,5.03
2023-05-22T00:23:35.801Z,4.95
2023-05-22T00:25:08.461Z,4.57
2023-05-22T00:26:40.325Z,4.80
2023-05-22T00:28:12.381Z,4.43
2023-05-22T00:29:44.378Z,4.40
2023-05-22T00:31:16.807Z,4.53
2023-05-22T00:32:48.720Z,5.05
2023-05-22T00:34:21.209Z,4.18
2023-05-22T00:35:53.092Z,4.53
2023-05-22T00:37:25.754Z,4.55
2023-05-22T00:38:57.596Z,4.43
2023-05-22T00:40:29.487Z,4.22
2023-05-22T00:42:01.698Z,4.22
2023-05-22T00:43:34.749Z,4.13
2023-05-22T00:45:07.429Z,4.50
2023-05-22T00:46:39.423Z,4.15
2023-05-22T00:48:12.566Z,4.85
2023-05-22T00:49:44.616Z,4.53
2023-05-22T00:51:16.505Z,4.32
2023-05-22T00:52:48.438Z,4.38
2023-05-22T00:54:20.545Z,3.97
2023-05-22T00:55:54.276Z,3.75
2023-05-22T00:57:27.273Z,4.60
2023-05-22T00:58:59.498Z,4.07
2023-05-22T01:00:34.280Z,4.20
2023-05-22T01:02:06.219Z,4.38
2023-05-22T01:03:45.351Z,4.65
2023-05-22T01:05:18.684Z,4.93
2023-05-22T01:06:51.254Z,4.25
2023-05-22T01:08:23.883Z,4.43
2023-05-22T01:09:57.722Z,4.25
2023-05-22T01:11:41.274Z,4.55
2023-05-22T01:13:28.157Z,4.28
2023-05-22T01:15:11.571Z,4.55
2023-05-22T01:16:55.354Z,4.35
2023-05-22T01:18:49.523Z,4.65
2023-05-22T01:20:24.281Z,4.38
2023-05-22T01:22:27.982Z,4.78
2023-05-22T01:24:27.685Z,4.88
2023-05-22T01:26:30.479Z,4.53
2023-05-22T01:28:29.955Z,4.95
2023-05-22T01:30:20.455Z,5.78
2023-05-22T01:31:55.621Z,4.68
2023-05-22T01:33:33.683Z,5.00
2023-05-22T01:35:11.108Z,4.70
2023-05-22T01:36:46.778Z,4.78
2023-05-22T01:38:19.208Z,4.50
2023-05-22T01:39:56.047Z,4.90
2023-05-22T01:41:29.561Z,4.43
2023-05-22T01:43:01.777Z,4.50
2023-05-22T01:44:33.622Z,4.78
2023-05-22T01:46:06.696Z,4.95
2023-05-22T01:47:38.675Z,4.60
2023-05-22T01:49:10.887Z,4.45
2023-05-22T01:50:43.151Z,4.50
2023-05-22T01:52:27.328Z,4.40
2023-05-22T01:54:09.456Z,4.38
2023-05-22T01:56:16.712Z,4.25
2023-05-22T01:58:00.279Z,4.43
2023-05-22T01:59:45.666Z,4.45
2023-05-22T02:01:20.363Z,4.53
2023-05-22T02:03:17.263Z,4.68
2023-05-22T02:05:11.475Z,4.45
2023-05-22T02:06:44.654Z,4.40
2023-05-22T02:08:17.414Z,4.90
2023-05-22T02:09:51.745Z,5.10
2023-05-22T02:11:27.259Z,4.85
2023-05-22T02:12:59.178Z,4.45
2023-05-22T02:14:31.842Z,4.80
2023-05-22T02:16:04.440Z,5.15
2023-05-22T02:17:43.208Z,4.88
2023-05-22T02:19:15.753Z,5.20
2023-05-22T02:20:47.803Z,5.03
2023-05-22T02:22:19.681Z,4.43
2023-05-22T02:23:51.633Z,4.65
2023-05-22T02:25:23.496Z,4.32
2023-05-22T02:26:55.566Z,4.43
2023-05-22T02:28:27.718Z,4.57
2023-05-22T02:29:59.576Z,4.60
2023-05-22T02:31:31.588Z,4.18
2023-05-22T02:33:06.133Z,4.30
2023-05-22T02:34:38.149Z,4.43
2023-05-22T02:36:13.232Z,4.10
2023-05-22T02:37:45.154Z,4.22
2023-05-22T02:39:18.956Z,4.50
2023-05-22T02:40:51.352Z,3.75
2023-05-22T02:42:23.764Z,4.10
2023-05-22T02:43:55.752Z,3.80
2023-05-22T02:45:28.724Z,4.10
2023-05-22T02:47:00.822Z,3.78
2023-05-22T02:48:33.168Z,4.18
2023-05-22T02:50:05.478Z,3.88
2023-05-22T02:51:38.988Z,4.00
2023-05-22T02:53:11.224Z,4.07
2023-05-22T02:54:43.183Z,3.97
2023-05-22T02:56:15.984Z,4.30
2023-05-22T02:57:48.007Z,3.70
2023-05-22T02:59:19.903Z,3.75
2023-05-22T03:00:53.152Z,4.10
2023-05-22T03:02:32.589Z,4.25
2023-05-22T03:04:05.095Z,4.38
2023-05-22T03:05:37.165Z,3.88
2023-05-22T03:07:09.109Z,4.18
2023-05-22T03:08:43.787Z,4.40
2023-05-22T03:10:15.830Z,4.32
2023-05-22T03:11:47.895Z,4.38
2023-05-22T03:13:20.008Z,4.70
2023-05-22T03:14:51.932Z,4.30
2023-05-22T03:16:25.051Z,4.20
2023-05-22T03:17:57.175Z,4.45
2023-05-22T03:19:29.517Z,4.50
2023-05-22T03:21:01.538Z,4.35
2023-05-22T03:22:33.370Z,4.80
2023-05-22T03:24:05.671Z,4.18
2023-05-22T03:25:38.007Z,4.60
2023-05-22T03:27:09.895Z,4.63
2023-05-22T03:28:45.241Z,4.60
2023-05-22T03:30:17.648Z,4.70
2023-05-22T03:32:00.144Z,4.97
2023-05-22T03:33:32.135Z,4.45
2023-05-22T03:35:05.409Z,5.00
2023-05-22T03:36:37.323Z,4.63
2023-05-22T03:38:09.865Z,4.88
2023-05-22T03:39:42.020Z,4.68
2023-05-22T03:41:31.063Z,4.93
2023-05-22T03:43:02.955Z,5.50
2023-05-22T03:44:34.890Z,5.20
2023-05-22T03:46:07.053Z,4.70
2023-05-22T03:47:39.109Z,4.75
2023-05-22T03:49:11.050Z,4.85
2023-05-22T03:50:42.947Z,4.10
2023-05-22T03:52:14.872Z,4.72
2023-05-22T03:53:46.743Z,4.72
2023-05-22T03:55:19.722Z,4.40
2023-05-22T03:56:51.744Z,4.30
2023-05-22T03:58:27.613Z,4.85
2023-05-22T04:00:06.564Z,5.10
2023-05-22T04:01:46.756Z,4.40
2023-05-22T04:03:19.869Z,4.40
2023-05-22T04:04:51.953Z,4.68
2023-05-22T04:06:23.915Z,4.72
2023-05-22T04:07:56.054Z,4.63
2023-05-22T04:09:28.009Z,4.63
2023-05-22T04:11:03.405Z,4.63
2023-05-22T04:12:35.321Z,4.72
2023-05-22T04:14:07.220Z,5.25
2023-05-22T04:15:41.762Z,5.20
2023-05-22T04:17:13.714Z,5.18
2023-05-22T04:18:45.640Z,5.03
2023-05-22T04:20:18.258Z,5.47
2023-05-22T04:21:50.099Z,5.45
2023-05-22T04:23:22.868Z,5.95
2023-05-22T04:24:54.724Z,6.40
2023-05-22T04:26:29.792Z,6.35
2023-05-22T04:28:04.444Z,5.88
2023-05-22T04:29:41.749Z,6.72
2023-05-22T04:31:14.053Z,5.68
2023-05-22T04:32:46.025Z,5.40
2023-05-22T04:34:18.671Z,5.80
2023-05-22T04:35:54.670Z,5.80
2023-05-22T04:37:28.862Z,5.60
2023-05-22T04:39:02.717Z,5.60
2023-05-22T04:40:38.372Z,5.20
2023-05-22T04:42:10.516Z,5.72
2023-05-22T04:43:42.998Z,5.65
2023-05-22T04:45:15.303Z,5.50
2023-05-22T04:46:47.301Z,4.97
2023-05-22T04:48:19.679Z,5.35
2023-05-22T04:49:52.025Z,5.25
2023-05-22T04:51:23.930Z,5.10
2023-05-22T04:53:14.570Z,4.78
2023-05-22T04:55:06.964Z,4.40
2023-05-22T04:56:57.447Z,4.57
2023-05-22T04:58:50.088Z,4.70
2023-05-22T05:00:26.601Z,4.43
2023-05-22T05:01:58.549Z,4.63
2023-05-22T05:03:30.750Z,5.28
2023-05-22T05:05:03.727Z,4.50
2023-05-22T05:06:36.155Z,5.35
2023-05-22T05:08:08.327Z,5.43
2023-05-22T05:09:40.212Z,4.63
2023-05-22T05:11:12.129Z,5.55
2023-05-22T05:12:44.250Z,5.30
2023-05-22T05:14:16.975Z,4.35
2023-05-22T05:15:49.318Z,4.90
2023-05-22T05:17:22.571Z,4.85
2023-05-22T05:18:55.681Z,4.95
2023-05-22T05:20:28.142Z,4.53
2023-05-22T05:22:00.816Z,5.35
2023-05-22T05:23:32.995Z,4.93
2023-05-22T05:25:05.749Z,4.72
2023-05-22T05:26:37.949Z,4.68
2023-05-22T05:28:11.914Z,5.03
2023-05-22T05:29:45.276Z,5.00
2023-05-22T05:31:24.477Z,5.15
2023-05-22T05:33:19.919Z,5.40
2023-05-22T05:35:10.451Z,4.88
2023-05-22T05:36:49.490Z,5.05
2023-05-22T05:38:22.841Z,5.30
2023-05-22T05:39:54.998Z,5.05
2023-05-22T05:41:27.443Z,4.90
2023-05-22T05:43:09.350Z,5.00
2023-05-22T05:44:41.747Z,5.13
2023-05-22T05:46:13.691Z,5.47
2023-05-22T05:47:46.569Z,5.07
2023-05-22T05:49:19.858Z,5.93
2023-05-22T05:50:52.654Z,5.43
2023-05-22T05:52:26.649Z,6.00
2023-05-22T05:53:58.789Z,5.40
2023-05-22T05:55:34.534Z,5.25
2023-05-22T05:57:07.243Z,5.20
2023-05-22T05:58:39.924Z,5.03
2023-05-22T06:00:30.909Z,4.68
2023-05-22T06:02:04.355Z,4.88
2023-05-22T06:03:38.686Z,5.35
2023-05-22T06:05:17.813Z,5.10
2023-05-22T06:06:49.815Z,4.93
2023-05-22T06:08:42.964Z,5.05
2023-05-22T06:10:14.939Z,5.45
2023-05-22T06:12:00.001Z,5.38
2023-05-22T06:13:31.937Z,4.90
2023-05-22T06:15:05.674Z,4.90
2023-05-22T06:16:38.302Z,5.40
2023-05-22T06:18:10.423Z,5.45
2023-05-22T06:19:43.455Z,5.43
2023-05-22T06:21:16.198Z,5.20
2023-05-22T06:22:48.050Z,5.18
2023-05-22T06:24:19.886Z,5.47
2023-05-22T06:25:51.770Z,5.60
2023-05-22T06:27:24.706Z,5.50
2023-05-22T06:28:56.956Z,4.70
2023-05-22T06:30:39.672Z,5.50
2023-05-22T06:32:16.854Z,5.43
2023-05-22T06:33:50.465Z,4.78
2023-05-22T06:35:22.403Z,5.65
2023-05-22T06:36:54.555Z,4.93
2023-05-22T06:38:31.837Z,4.90
2023-05-22T06:40:04.242Z,5.10
2023-05-22T06:41:43.383Z,4.88
2023-05-22T06:43:17.567Z,4.95
2023-05-22T06:45:08.758Z,4.90
2023-05-22T06:46:50.822Z,4.43
2023-05-22T06:48:27.638Z,4.85
2023-05-22T06:50:18.163Z,4.68
2023-05-22T06:51:51.220Z,4.45
2023-05-22T06:53:24.068Z,4.80
2023-05-22T06:54:57.011Z,4.90
2023-05-22T06:56:28.861Z,4.60
2023-05-22T06:58:09.669Z,4.90
2023-05-22T06:59:41.775Z,4.50
2023-05-22T07:01:49.264Z,4.57
2023-05-22T07:03:27.424Z,4.25
2023-05-22T07:05:22.395Z,4.05
2023-05-22T07:07:01.371Z,4.40
2023-05-22T07:08:34.378Z,4.03
2023-05-22T07:10:07.376Z,4.10
2023-05-22T07:11:40.255Z,3.90
2023-05-22T07:13:12.771Z,4.05
2023-05-22T07:14:44.630Z,3.50
2023-05-22T07:16:17.031Z,3.75
2023-05-22T07:17:49.533Z,3.63
2023-05-22T07:19:22.824Z,3.80
2023-05-22T07:20:54.941Z,3.38
2023-05-22T07:22:28.342Z,3.25
2023-05-22T07:24:08.232Z,3.00
2023-05-22T07:25:43.164Z,3.05
2023-05-22T07:27:16.378Z,3.03
2023-05-22T07:28:50.985Z,3.28
2023-05-22T07:30:22.841Z,3.10
2023-05-22T07:31:54.940Z,3.60
2023-05-22T07:33:29.193Z,3.30
2023-05-22T07:35:02.075Z,3.45
2023-05-22T07:36:34.961Z,3.10
2023-05-22T07:38:07.707Z,3.50
2023-05-22T07:39:40.292Z,3.42
2023-05-22T07:41:12.409Z,3.40
2023-05-22T07:42:44.298Z,3.65
2023-05-22T07:44:17.785Z,3.00
2023-05-22T07:45:49.663Z,3.20
2023-05-22T07:47:24.567Z,3.10
2023-05-22T07:48:56.971Z,3.20
2023-05-22T07:50:30.683Z,3.08
2023-05-22T07:52:02.556Z,2.63
2023-05-22T07:53:34.635Z,2.83
2023-05-22T07:55:08.732Z,3.20
2023-05-22T07:56:43.221Z,3.15
2023-05-22T07:58:15.696Z,2.97
2023-05-22T07:59:49.539Z,3.05
2023-05-22T08:01:21.603Z,3.00
2023-05-22T08:02:53.522Z,2.70
2023-05-22T08:04:26.422Z,2.72
2023-05-22T08:05:59.344Z,3.00
2023-05-22T08:07:33.169Z,2.72
2023-05-22T08:09:05.269Z,2.80
2023-05-22T08:12:12.676Z,2.50
2023-05-22T08:13:44.913Z,2.97
2023-05-22T08:15:16.865Z,2.60
2023-05-22T08:16:49.220Z,2.63
2023-05-22T08:18:22.618Z,3.20
2023-05-22T08:19:54.574Z,2.97
2023-05-22T08:21:26.589Z,2.47
2023-05-22T08:22:59.432Z,2.80
2023-05-22T08:24:31.597Z,2.50
2023-05-22T08:26:03.686Z,2.63
2023-05-22T08:27:35.599Z,3.08
2023-05-22T08:29:07.610Z,2.80
2023-05-22T08:30:39.721Z,2.80
2023-05-22T08:32:11.830Z,2.67
2023-05-22T08:33:43.749Z,2.60
2023-05-22T08:35:15.962Z,2.50
2023-05-22T08:36:50.564Z,2.78
2023-05-22T08:38:22.609Z,2.55
2023-05-22T08:39:54.522Z,2.80
2023-05-22T08:41:26.466Z,2.28
2023-05-22T08:42:58.714Z,2.35
2023-05-22T08:44:30.681Z,2.72
2023-05-22T08:46:06.349Z,2.55
2023-05-22T08:47:40.975Z,2.60
2023-05-22T08:49:13.378Z,2.28
2023-05-22T08:50:48.805Z,2.97
2023-05-22T08:52:30.093Z,2.20
2023-05-22T08:54:07.665Z,2.47
2023-05-22T08:55:39.718Z,2.65
2023-05-22T08:57:11.944Z,2.70
2023-05-22T08:58:44.579Z,3.35
2023-05-22T09:00:17.680Z,2.60
2023-05-22T09:01:52.575Z,2.63
2023-05-22T09:03:28.731Z,2.63
2023-05-22T09:05:02.310Z,2.72
2023-05-22T09:06:34.368Z,2.38
2023-05-22T09:08:18.990Z,2.13
2023-05-22T09:09:52.590Z,2.30
2023-05-22T09:11:24.754Z,2.35
2023-05-22T09:13:11.601Z,2.40
2023-05-22T09:14:44.826Z,3.00
2023-05-22T09:16:17.260Z,2.20
2023-05-22T09:17:49.144Z,2.30
2023-05-22T09:19:21.531Z,2.10
2023-05-22T09:20:53.427Z,2.70
2023-05-22T09:22:36.747Z,2.33
2023-05-22T09:24:10.274Z,2.35
2023-05-22T09:25:43.373Z,2.30
2023-05-22T09:27:15.230Z,2.30
2023-05-22T09:28:47.602Z,2.33
2023-05-22T09:30:20.409Z,2.33
2023-05-22T09:31:52.526Z,2.75
2023-05-22T09:33:24.716Z,3.40
2023-05-22T09:35:04.337Z,2.88
2023-05-22T09:36:37.053Z,2.47
2023-05-22T09:38:10.237Z,3.00
2023-05-22T09:39:46.480Z,2.92
2023-05-22T09:41:22.702Z,2.58
2023-05-22T09:42:54.694Z,2.70
2023-05-22T09:44:27.184Z,2.78
2023-05-22T09:46:06.549Z,2.72
2023-05-22T09:47:38.993Z,2.55
2023-05-22T09:49:13.242Z,2.97
2023-05-22T09:50:49.018Z,2.47
2023-05-22T09:52:22.130Z,2.40
2023-05-22T09:54:01.599Z,2.70
2023-05-22T09:55:33.962Z,2.67
2023-05-22T09:57:09.583Z,3.00
2023-05-22T09:58:45.214Z,2.28
2023-05-22T10:00:18.425Z,2.78
2023-05-22T10:01:51.929Z,2.20
2023-05-22T10:03:25.092Z,2.50
2023-05-22T10:04:58.041Z,2.60
2023-05-22T10:06:31.778Z,3.08
2023-05-22T10:08:12.965Z,2.83
2023-05-22T10:09:49.094Z,2.80
2023-05-22T10:11:22.284Z,2.83
2023-05-22T10:13:01.154Z,2.58
2023-05-22T10:14:34.969Z,2.53
2023-05-22T10:16:08.215Z,2.45
2023-05-22T10:17:42.372Z,2.90
2023-05-22T10:19:14.782Z,2.70
2023-05-22T10:20:49.322Z,2.70
2023-05-22T10:22:22.920Z,2.50
2023-05-22T10:23:55.662Z,2.65
2023-05-22T10:25:27.535Z,2.53
2023-05-22T10:26:59.812Z,2.42
2023-05-22T10:28:40.020Z,2.55
2023-05-22T10:30:29.262Z,2.50
2023-05-22T10:32:45.324Z,2.40
2023-05-22T10:34:28.759Z,2.40
2023-05-22T10:36:20.255Z,2.80
2023-05-22T10:37:54.998Z,2.65
2023-05-22T10:39:43.396Z,2.55
2023-05-22T10:41:16.994Z,2.70
2023-05-22T10:42:48.857Z,2.47
2023-05-22T10:44:22.527Z,2.47
2023-05-22T10:46:03.249Z,2.83
2023-05-22T10:47:35.275Z,2.70
2023-05-22T10:49:07.508Z,2.63
2023-05-22T10:50:40.466Z,2.22
2023-05-22T10:52:15.120Z,2.75
2023-05-22T10:53:58.002Z,2.47
2023-05-22T10:55:29.877Z,2.47
2023-05-22T10:57:17.154Z,2.50
2023-05-22T10:59:05.442Z,2.80
2023-05-22T11:00:38.135Z,2.55
2023-05-22T11:02:40.007Z,2.53
2023-05-22T11:04:12.426Z,2.28
2023-05-22T11:05:53.064Z,2.38
2023-05-22T11:07:24.933Z,2.30
2023-05-22T11:08:57.772Z,2.20
2023-05-22T11:10:52.140Z,2.25
2023-05-22T11:12:24.920Z,2.40
2023-05-22T11:14:06.162Z,2.53
2023-05-22T11:15:45.512Z,2.10
2023-05-22T11:17:41.728Z,2.10
2023-05-22T11:19:23.189Z,2.45
2023-05-22T11:20:56.054Z,2.63
2023-05-22T11:22:45.056Z,2.45
2023-05-22T11:24:18.444Z,2.20
2023-05-22T11:25:50.518Z,2.38
2023-05-22T11:27:22.437Z,2.00
2023-05-22T11:28:54.487Z,1.98
2023-05-22T11:30:28.081Z,2.55
2023-05-22T11:32:00.217Z,2.45
2023-05-22T11:33:32.349Z,2.03
2023-05-22T11:35:08.751Z,1.95
2023-05-22T11:36:40.997Z,2.25
2023-05-22T11:38:12.921Z,1.88
2023-05-22T11:39:57.932Z,2.10
2023-05-22T11:41:33.223Z,2.28
2023-05-22T11:43:05.754Z,2.40
2023-05-22T11:44:39.481Z,2.30
2023-05-22T11:46:12.539Z,2.08
2023-05-22T11:47:45.303Z,2.20
2023-05-22T11:49:17.502Z,1.80
2023-05-22T11:50:49.477Z,2.17
2023-05-22T11:52:21.505Z,1.98
2023-05-22T11:53:53.410Z,2.42
2023-05-22T11:55:25.270Z,2.30
2023-05-22T11:56:57.125Z,2.20
2023-05-22T11:58:29.873Z,2.05
2023-05-22T12:00:02.277Z,2.10
2023-05-22T12:01:43.771Z,1.92
2023-05-22T12:03:15.648Z,2.08
2023-05-22T12:04:47.571Z,2.15
2023-05-22T12:06:19.588Z,2.00
2023-05-22T12:07:51.509Z,2.03
2023-05-22T12:09:23.498Z,1.80
2023-05-22T12:10:55.432Z,1.98
2023-05-22T12:12:27.302Z,2.30
2023-05-22T12:14:03.439Z,2.15
2023-05-22T12:15:35.284Z,1.98
2023-05-22T12:17:07.129Z,1.90
2023-05-22T12:18:41.609Z,2.38
2023-05-22T12:20:14.722Z,2.03
2023-05-22T12:21:46.650Z,2.30
2023-05-22T12:23:23.042Z,2.20
2023-05-22T12:24:55.795Z,2.28
2023-05-22T12:26:27.615Z,1.67
2023-05-22T12:27:59.490Z,2.00
2023-05-22T12:29:31.541Z,2.38
2023-05-22T12:31:03.375Z,1.95
2023-05-22T12:32:35.286Z,2.10
2023-05-22T12:34:08.619Z,2.30
2023-05-22T12:35:41.618Z,2.10
2023-05-22T12:37:33.703Z,2.00
2023-05-22T12:39:18.865Z,2.13
2023-05-22T12:40:51.472Z,2.20
2023-05-22T12:42:24.614Z,2.10
2023-05-22T12:43:56.445Z,2.30
2023-05-22T12:45:28.309Z,2.60
2023-05-22T12:47:00.146Z,2.00
2023-05-22T12:48:31.994Z,2.10
2023-05-22T12:50:04.052Z,2.10
2023-05-22T12:51:35.900Z,2.03
2023-05-22T12:53:07.778Z,2.20
2023-05-22T12:54:39.615Z,2.20
2023-05-22T12:56:12.162Z,2.40
2023-05-22T12:57:44.024Z,2.10
2023-05-22T12:59:15.839Z,1.90
2023-05-22T13:00:47.671Z,2.22
2023-05-22T13:02:19.529Z,2.08
2023-05-22T13:03:54.317Z,2.30
2023-05-22T13:05:26.638Z,2.00
2023-05-22T13:06:58.641Z,2.40
2023-05-22T13:08:30.479Z,2.10
2023-05-22T13:10:06.935Z,2.40
2023-05-22T13:11:39.963Z,2.33
2023-05-22T13:13:11.991Z,2.40
2023-05-22T13:14:43.820Z,2.00
2023-05-22T13:16:15.774Z,2.17
2023-05-22T13:17:47.688Z,2.70
2023-05-22T13:19:19.661Z,2.15
2023-05-22T13:20:52.141Z,2.30
2023-05-22T13:22:25.134Z,2.13
2023-05-22T13:23:56.967Z,2.40
2023-05-22T13:25:28.849Z,2.33
2023-05-22T13:27:00.726Z,2.33
2023-05-22T13:28:32.563Z,2.15
2023-05-22T13:30:05.628Z,2.30
2023-05-22T13:31:38.134Z,2.13
2023-05-22T13:33:10.036Z,2.08
2023-05-22T13:34:42.292Z,2.03
2023-05-22T13:36:14.361Z,2.47
2023-05-22T13:37:46.336Z,2.45
2023-05-22T13:39:18.257Z,2.10
2023-05-22T13:40:50.137Z,2.08
2023-05-22T13:42:22.132Z,1.98
2023-05-22T13:43:54.221Z,2.40
2023-05-22T13:45:27.417Z,2.50
2023-05-22T13:46:59.922Z,2.58
2023-05-22T13:48:31.876Z,2.20
2023-05-22T13:50:03.890Z,2.05
2023-05-22T13:51:36.040Z,1.85
2023-05-22T13:53:07.942Z,2.03
2023-05-22T13:54:39.792Z,2.30
2023-05-22T13:56:11.662Z,2.03
2023-05-22T13:57:43.513Z,2.15
2023-05-22T13:59:15.348Z,2.35
2023-05-22T14:00:47.164Z,2.10
2023-05-22T14:02:20.954Z,2.50
2023-05-22T14:03:52.882Z,2.28
2023-05-22T14:05:24.857Z,2.70
2023-05-22T14:06:56.864Z,2.20
2023-05-22T14:08:28.715Z,2.10
2023-05-22T14:10:01.652Z,2.10
2023-05-22T14:11:34.199Z,2.05
2023-05-22T14:13:06.112Z,2.50
2023-05-22T14:14:38.013Z,2.17
2023-05-22T14:16:09.925Z,2.20
2023-05-22T14:17:41.980Z,1.80
2023-05-22T14:19:13.923Z,1.58
2023-05-22T14:20:46.210Z,2.05
2023-05-22T14:22:18.070Z,2.05
2023-05-22T14:23:49.936Z,2.28
2023-05-22T14:25:21.790Z,2.03
2023-05-22T14:26:58.183Z,2.00
2023-05-22T14:28:31.952Z,2.33
2023-05-22T14:30:04.172Z,2.03
2023-05-22T14:31:50.511Z,2.00
2023-05-22T14:33:23.547Z,2.33
2023-05-22T14:34:55.471Z,2.63
2023-05-22T14:36:27.313Z,2.13
2023-05-22T14:37:59.131Z,1.95
2023-05-22T14:39:31.083Z,2.05
2023-05-22T14:41:03.188Z,2.22
2023-05-22T14:42:38.644Z,2.15
2023-05-22T14:44:10.511Z,2.08
2023-05-22T14:45:43.897Z,2.03
2023-05-22T14:47:15.790Z,1.92
2023-05-22T14:48:47.606Z,1.90
2023-05-22T14:50:20.760Z,2.10
2023-05-22T14:51:53.173Z,2.30
2023-05-22T14:53:25.295Z,2.15
2023-05-22T14:54:57.158Z,2.03
2023-05-22T14:56:28.983Z,2.10
2023-05-22T14:58:00.920Z,1.88
2023-05-22T14:59:34.069Z,1.95
2023-05-22T15:01:05.957Z,1.98
2023-05-22T15:02:38.360Z,1.88
2023-05-22T15:04:10.255Z,1.95
2023-05-22T15:05:42.543Z,1.85
2023-05-22T15:07:14.655Z,2.20
2023-05-22T15:08:46.520Z,2.00
2023-05-22T15:10:18.434Z,1.98
2023-05-22T15:11:51.250Z,1.83
2023-05-22T15:13:23.129Z,1.85
2023-05-22T15:14:54.968Z,1.90
2023-05-22T15:16:27.984Z,1.65
2023-05-22T15:18:02.939Z,1.67
2023-05-22T15:19:35.253Z,2.35
2023-05-22T15:21:07.331Z,2.03
2023-05-22T15:22:39.977Z,2.13
2023-05-22T15:24:12.066Z,2.05
2023-05-22T15:25:45.016Z,2.03
2023-05-22T15:27:17.540Z,2.10
2023-05-22T15:28:49.395Z,2.00
2023-05-22T15:30:23.705Z,1.95
2023-05-22T15:31:55.661Z,1.83
2023-05-22T15:33:27.630Z,2.10
2023-05-22T15:34:59.535Z,1.60
2023-05-22T15:36:33.069Z,1.60
2023-05-22T15:38:04.902Z,1.77
2023-05-22T15:39:36.731Z,1.83
2023-05-22T15:41:08.609Z,2.08
2023-05-22T15:42:40.491Z,2.20
2023-05-22T15:44:12.381Z,1.55
2023-05-22T15:45:48.529Z,1.85
2023-05-22T15:47:20.832Z,1.83
2023-05-22T15:48:52.697Z,1.65
2023-05-22T15:50:24.558Z,1.65
2023-05-22T15:51:56.392Z,2.10
2023-05-22T15:53:28.253Z,1.77
2023-05-22T15:55:00.490Z,1.70
2023-05-22T15:56:32.314Z,2.65
2023-05-22T15:58:06.364Z,2.13
2023-05-22T15:59:38.208Z,1.85
2023-05-22T16:01:10.117Z,1.80
2023-05-22T16:02:42.175Z,2.00
2023-05-22T16:04:14.070Z,3.05
2023-05-22T16:05:47.200Z,2.38
2023-05-22T16:07:20.346Z,2.03
2023-05-22T16:08:52.268Z,1.88
2023-05-22T16:10:24.164Z,1.42
2023-05-22T16:11:56.029Z,2.38
2023-05-22T16:13:28.297Z,1.70
2023-05-22T16:15:01.270Z,1.75
2023-05-22T16:16:34.959Z,1.60
2023-05-22T16:18:07.570Z,1.67
2023-05-22T16:19:39.531Z,1.83
2023-05-22T16:21:11.515Z,1.80
2023-05-22T16:22:48.498Z,1.70
2023-05-22T16:24:20.944Z,1.58
2023-05-22T16:25:52.811Z,1.40
2023-05-22T16:27:24.650Z,1.60
2023-05-22T16:28:56.515Z,1.80
2023-05-22T16:30:28.423Z,1.77
2023-05-22T16:32:00.383Z,1.83
2023-05-22T16:33:32.900Z,1.58
2023-05-22T16:35:05.108Z,1.75
2023-05-22T16:36:37.384Z,1.70
2023-05-22T16:38:12.306Z,1.75
2023-05-22T16:39:46.411Z,1.80
2023-05-22T16:41:18.259Z,1.80
2023-05-22T16:42:51.835Z,1.70
2023-05-22T16:44:23.735Z,1.77
2023-05-22T16:45:55.745Z,1.60
2023-05-22T16:47:28.789Z,1.60
2023-05-22T16:49:00.722Z,1.73
2023-05-22T16:50:32.963Z,1.60
2023-05-22T16:52:05.100Z,1.52
2023-05-22T16:53:38.327Z,1.70
2023-05-22T16:55:10.772Z,1.55
2023-05-22T16:56:42.749Z,1.60
2023-05-22T16:58:14.691Z,1.63
2023-05-22T16:59:46.921Z,1.60
2023-05-22T17:01:19.040Z,1.80
2023-05-22T17:02:51.037Z,1.80
2023-05-22T17:04:22.937Z,1.83
2023-05-22T17:05:54.783Z,1.70
2023-05-22T17:07:26.780Z,2.08
2023-05-22T17:08:58.646Z,1.80
2023-05-22T17:10:30.500Z,1.77
2023-05-22T17:12:02.367Z,1.85
2023-05-22T17:13:34.194Z,2.58
2023-05-22T17:15:06.830Z,1.83
2023-05-22T17:16:39.371Z,1.75
2023-05-22T17:18:12.102Z,2.03
2023-05-22T17:19:43.988Z,1.92
2023-05-22T17:21:17.660Z,1.70
2023-05-22T17:22:49.566Z,1.73
2023-05-22T17:24:21.414Z,1.58
2023-05-22T17:25:53.367Z,1.77
2023-05-22T17:27:35.514Z,1.90
2023-05-22T17:29:08.220Z,2.25
2023-05-22T17:30:44.457Z,1.80
2023-05-22T17:32:16.374Z,1.73
2023-05-22T17:33:48.264Z,1.88
2023-05-22T17:35:20.231Z,1.90
2023-05-22T17:36:52.085Z,1.65
2023-05-22T17:38:23.955Z,1.70
2023-05-22T17:39:55.876Z,1.95
2023-05-22T17:41:27.993Z,1.73
2023-05-22T17:43:02.529Z,1.75
2023-05-22T17:44:34.413Z,2.17
2023-05-22T17:46:06.667Z,1.65
2023-05-22T17:47:38.526Z,1.90
2023-05-22T17:49:10.440Z,1.58
2023-05-22T17:50:42.483Z,1.80
2023-05-22T17:52:14.543Z,2.03
2023-05-22T17:53:46.728Z,1.95
2023-05-22T17:55:19.110Z,2.00
2023-05-22T17:56:51.140Z,2.15
2023-05-22T17:58:22.993Z,2.00
2023-05-22T17:59:54.816Z,2.05
2023-05-22T18:01:28.986Z,2.00
2023-05-22T18:03:01.168Z,2.63
2023-05-22T18:04:33.113Z,2.10
2023-05-22T18:06:05.499Z,2.10
2023-05-22T18:07:37.433Z,1.90
2023-05-22T18:09:09.491Z,1.95
2023-05-22T18:10:42.026Z,1.73
2023-05-22T18:12:30.288Z,2.25
2023-05-22T18:14:03.362Z,1.90
2023-05-22T18:15:35.537Z,2.00
2023-05-22T18:17:07.982Z,2.05
2023-05-22T18:18:39.863Z,1.92
2023-05-22T18:20:12.406Z,1.90
2023-05-22T18:21:44.715Z,2.45
2023-05-22T18:23:16.536Z,1.95
2023-05-22T18:24:48.422Z,2.45
2023-05-22T18:26:20.325Z,1.70
2023-05-22T18:27:52.226Z,2.17
2023-05-22T18:29:24.202Z,2.67
2023-05-22T18:30:56.136Z,2.22
2023-05-22T18:32:27.968Z,1.95
2023-05-22T18:33:59.809Z,2.03
2023-05-22T18:35:31.896Z,2.10
2023-05-22T18:37:04.048Z,2.22
2023-05-22T18:38:35.963Z,2.25
2023-05-22T18:40:09.784Z,2.30
2023-05-22T18:41:41.614Z,2.08
2023-05-22T18:43:13.687Z,2.13
2023-05-22T18:44:46.876Z,2.10
2023-05-22T18:46:20.665Z,2.30
2023-05-22T18:47:52.621Z,2.03
2023-05-22T18:49:24.590Z,2.10
2023-05-22T18:50:57.862Z,1.67
2023-05-22T18:52:30.062Z,2.13
2023-05-22T18:54:01.901Z,1.92
2023-05-22T18:55:33.893Z,2.00
2023-05-22T18:57:06.003Z,2.00
2023-05-22T18:58:41.604Z,2.20
2023-05-22T19:00:13.792Z,2.35
2023-05-22T19:01:45.753Z,2.13
2023-05-22T19:03:17.925Z,2.35
2023-05-22T19:04:50.765Z,2.40
2023-05-22T19:06:23.276Z,2.30
2023-05-22T19:07:55.927Z,2.28
2023-05-22T19:09:27.834Z,2.10
2023-05-22T19:11:00.155Z,2.33
2023-05-22T19:12:32.181Z,1.90
2023-05-22T19:14:04.756Z,2.15
2023-05-22T19:15:37.794Z,1.98
2023-05-22T19:17:10.334Z,1.80
2023-05-22T19:18:42.363Z,1.80
2023-05-22T19:20:14.543Z,1.75
2023-05-22T19:21:46.825Z,2.35
2023-05-22T19:23:18.845Z,1.95
2023-05-22T19:24:50.888Z,2.17
2023-05-22T19:26:22.805Z,2.40
2023-05-22T19:27:54.653Z,2.03
2023-05-22T19:29:26.478Z,2.20
2023-05-22T19:31:00.160Z,2.35
2023-05-22T19:32:32.711Z,1.88
2023-05-22T19:34:04.642Z,2.17
2023-05-22T19:35:36.554Z,1.98
2023-05-22T19:37:08.742Z,2.30
2023-05-22T19:38:40.667Z,2.10
2023-05-22T19:40:12.507Z,2.00
2023-05-22T19:41:44.375Z,2.20
2023-05-22T19:43:16.256Z,2.40
2023-05-22T19:44:48.100Z,2.38
2023-05-22T19:46:19.964Z,1.98
2023-05-22T19:47:52.062Z,2.10
2023-05-22T19:49:23.955Z,2.05
2023-05-22T19:50:55.792Z,2.17
2023-05-22T19:52:27.695Z,2.22
2023-05-22T19:53:59.716Z,1.90
2023-05-22T19:55:32.064Z,2.08
2023-05-22T19:57:04.023Z,2.47
2023-05-22T19:58:35.940Z,2.20
2023-05-22T20:00:11.160Z,2.10
2023-05-22T20:01:43.269Z,2.47
2023-05-22T20:03:15.359Z,2.40
2023-05-22T20:04:48.710Z,2.42
2023-05-22T20:06:21.114Z,2.28
2023-05-22T20:07:52.967Z,2.58
2023-05-22T20:09:25.304Z,2.42
2023-05-22T20:10:57.215Z,2.20
2023-05-22T20:12:29.039Z,2.30
2023-05-22T20:14:02.660Z,2.30
2023-05-22T20:15:34.611Z,2.25
2023-05-22T20:17:06.962Z,2.10
2023-05-22T20:18:39.121Z,2.22
2023-05-22T20:20:11.307Z,2.10
2023-05-22T20:21:43.218Z,2.03
2023-05-22T20:23:15.185Z,2.35
2023-05-22T20:24:47.516Z,2.28
2023-05-22T20:26:20.082Z,2.08
2023-05-22T20:27:51.972Z,2.00
2023-05-22T20:29:24.017Z,2.30
2023-05-22T20:30:56.029Z,2.65
2023-05-22T20:32:28.303Z,2.10
2023-05-22T20:34:02.146Z,2.60
2023-05-22T20:35:34.114Z,2.40
2023-05-22T20:37:06.757Z,2.10
2023-05-22T20:38:38.578Z,2.30
2023-05-22T20:40:10.695Z,2.55
2023-05-22T20:41:42.533Z,2.35
2023-05-22T20:43:14.753Z,2.50
2023-05-22T20:44:46.610Z,2.67
2023-05-22T20:46:18.500Z,2.00
2023-05-22T20:47:50.893Z,2.38
2023-05-22T20:49:22.764Z,2.28
2023-05-22T20:50:54.651Z,2.45
2023-05-22T20:52:30.496Z,2.70
2023-05-22T20:54:02.381Z,2.40